Time;durP1;ratioP1;P1;durP2;ratioP2;P2;SDS_P1;SDS_P2;PMS_P1;PMS_P2;Temp;Humidity;BMP_temperature;BMP_pressure;BME280_temperature;BME280_humidity;BME280_pressure;Samples;Min_cycle;Max_cycle;Signal;HPM_P1;HPM_P2
2020/12/18 00:01:40;;;;;;;25.17;23.10;;;5.70;99.90;;;;;;5015687;28;20206;-77
2020/12/18 00:04:07;;;;;;;25.13;23.13;;;5.70;98.70;;;;;;5016573;28;20227;-77
2020/12/18 00:06:36;;;;;;;29.17;26.40;;;5.70;97.90;;;;;;5016253;28;20712;-77
2020/12/18 00:09:03;;;;;;;25.90;23.88;;;5.70;97.50;;;;;;5016383;28;20200;-77
2020/12/18 00:11:30;;;;;;;25.65;23.65;;;5.60;96.50;;;;;;5016262;28;20204;-77
2020/12/18 00:13:56;;;;;;;25.17;23.15;;;5.50;96.50;;;;;;5016665;28;20206;-77
2020/12/18 00:16:26;;;;;;;24.48;22.58;;;5.40;96.60;;;;;;5015740;28;20309;-77
2020/12/18 00:18:52;;;;;;;25.85;23.85;;;5.40;96.70;;;;;;5016443;28;20194;-77
2020/12/18 00:21:20;;;;;;;26.65;24.58;;;5.40;96.00;;;;;;5016302;28;20200;-77
2020/12/18 00:23:47;;;;;;;25.70;23.67;;;5.40;95.50;;;;;;5016501;28;20230;-77
2020/12/18 00:26:13;;;;;;;25.98;24.08;;;5.30;95.30;;;;;;5015930;28;20658;-77
2020/12/18 00:28:40;;;;;;;25.92;23.77;;;5.20;95.20;;;;;;5015349;28;20194;-77
2020/12/18 00:31:06;;;;;;;24.95;23.25;;;5.10;95.50;;;;;;5016060;28;20660;-77
2020/12/18 00:33:33;;;;;;;25.73;23.42;;;5.10;95.30;;;;;;5015727;28;20191;-77
2020/12/18 00:35:59;;;;;;;25.73;23.92;;;5.10;95.20;;;;;;5015818;28;20198;-77
2020/12/18 00:38:27;;;;;;;27.02;24.98;;;5.10;94.80;;;;;;5015845;28;20198;-77
2020/12/18 00:40:53;;;;;;;25.95;24.05;;;5.10;94.80;;;;;;5016081;28;20201;-77
2020/12/18 00:43:19;;;;;;;27.17;24.92;;;5.00;94.90;;;;;;5022355;28;20218;-77
2020/12/18 00:45:46;;;;;;;26.77;24.70;;;5.00;95.20;;;;;;5020725;28;20658;-77
2020/12/18 00:48:13;;;;;;;472.58;78.75;;;5.00;95.40;;;;;;5015824;28;20218;-77
2020/12/18 00:50:39;;;;;;;27.77;25.33;;;4.90;97.10;;;;;;5015698;28;20199;-77
2020/12/18 00:53:06;;;;;;;246.27;49.00;;;4.90;97.70;;;;;;5015901;28;20198;-77
2020/12/18 00:55:33;;;;;;;25.38;23.33;;;4.90;99.90;;;;;;5015650;28;20206;-78
2020/12/18 00:57:59;;;;;;;25.20;23.30;;;5.00;99.10;;;;;;5015739;28;20623;-77
2020/12/18 01:00:25;;;;;;;25.95;23.63;;;4.90;97.50;;;;;;5015333;28;20225;-77
2020/12/18 01:02:52;;;;;;;27.10;24.90;;;4.90;96.60;;;;;;5015575;28;20217;-77
2020/12/18 01:05:18;;;;;;;26.95;24.55;;;4.80;96.60;;;;;;5015419;28;20202;-77
2020/12/18 01:07:44;;;;;;;26.88;24.67;;;4.70;96.70;;;;;;5015245;28;20229;-77
2020/12/18 01:10:11;;;;;;;1999.90;534.30;;;4.70;97.90;;;;;;5015272;28;20198;-77
2020/12/18 01:12:38;;;;;;;335.17;53.58;;;4.80;99.90;;;;;;5014400;28;20195;-77
2020/12/18 01:15:05;;;;;;;90.53;33.90;;;4.90;99.90;;;;;;5014962;28;20198;-77
2020/12/18 01:17:31;;;;;;;1949.25;271.73;;;4.90;99.90;;;;;;5014218;28;20217;-77
2020/12/18 01:19:57;;;;;;;1498.10;202.15;;;5.00;99.90;;;;;;5015479;28;20205;-77
2020/12/18 01:22:24;;;;;;;26.92;24.55;;;5.10;99.90;;;;;;5015141;28;20202;-77
2020/12/18 01:24:50;;;;;;;26.85;24.65;;;5.10;99.90;;;;;;5014900;28;20289;-77
2020/12/18 01:27:16;;;;;;;28.40;25.63;;;5.10;99.90;;;;;;5014939;28;20228;-77
2020/12/18 01:29:44;;;;;;;26.90;24.60;;;5.20;99.90;;;;;;5015000;28;20248;-77
2020/12/18 01:32:10;;;;;;;25.92;23.70;;;5.10;99.30;;;;;;5015064;28;20199;-77
2020/12/18 01:34:36;;;;;;;27.08;24.67;;;5.20;99.00;;;;;;5014281;28;20250;-77
2020/12/18 01:37:03;;;;;;;26.35;24.25;;;5.20;97.70;;;;;;5014655;28;20714;-77
2020/12/18 01:39:29;;;;;;;26.40;24.02;;;5.20;97.80;;;;;;5014454;28;20201;-77
2020/12/18 01:41:56;;;;;;;24.23;22.23;;;5.20;97.40;;;;;;5015017;28;20668;-77
2020/12/18 01:44:22;;;;;;;26.15;24.00;;;5.20;96.90;;;;;;5014535;28;20713;-77
2020/12/18 01:46:50;;;;;;;25.70;23.60;;;5.20;96.50;;;;;;5014566;28;20241;-77
2020/12/18 01:49:16;;;;;;;25.20;23.48;;;5.20;96.20;;;;;;5014697;28;20714;-77
2020/12/18 01:51:42;;;;;;;25.15;22.98;;;5.30;95.70;;;;;;5014659;28;20211;-77
2020/12/18 01:54:09;;;;;;;25.23;23.30;;;5.30;95.10;;;;;;5014755;28;20219;-77
2020/12/18 01:56:36;;;;;;;25.42;23.52;;;5.20;95.30;;;;;;5014001;28;20603;-77
2020/12/18 01:59:03;;;;;;;27.42;25.35;;;5.20;95.40;;;;;;5014624;28;20194;-77
2020/12/18 02:01:30;;;;;;;25.58;23.58;;;5.30;95.20;;;;;;5014493;28;20202;-77
2020/12/18 02:03:57;;;;;;;23.63;21.88;;;5.20;94.90;;;;;;5014562;28;20231;-77
2020/12/18 02:06:26;;;;;;;23.17;21.52;;;5.20;94.60;;;;;;5013575;28;20228;-77
2020/12/18 02:08:53;;;;;;;24.65;22.95;;;5.20;94.50;;;;;;5014375;28;20195;-77
2020/12/18 02:11:21;;;;;;;24.80;22.90;;;5.20;94.40;;;;;;5014354;28;20233;-77
2020/12/18 02:13:49;;;;;;;24.50;22.60;;;5.20;94.00;;;;;;5014308;28;20201;-77
2020/12/18 02:16:16;;;;;;;25.77;23.67;;;5.10;93.80;;;;;;5013925;28;20272;-77
2020/12/18 02:18:43;;;;;;;26.10;23.92;;;5.00;94.20;;;;;;5014788;28;20258;-77
2020/12/18 02:21:10;;;;;;;23.00;21.30;;;4.90;94.80;;;;;;5016366;28;20197;-77
2020/12/18 02:23:39;;;;;;;24.55;22.73;;;4.80;95.00;;;;;;5015546;28;20227;-77
2020/12/18 02:26:08;;;;;;;27.45;24.55;;;4.80;94.80;;;;;;5013541;28;20187;-77
2020/12/18 02:28:37;;;;;;;24.13;22.35;;;4.80;94.80;;;;;;5014008;28;20539;-77
2020/12/18 02:31:03;;;;;;;25.45;23.65;;;4.80;94.90;;;;;;5014028;28;20225;-77
2020/12/18 02:33:30;;;;;;;46.33;26.50;;;4.80;95.00;;;;;;5013788;28;20194;-77
2020/12/18 02:35:57;;;;;;;25.95;24.10;;;4.80;95.00;;;;;;5013590;28;20217;-77
2020/12/18 02:38:23;;;;;;;25.35;23.33;;;4.80;95.90;;;;;;5017395;28;20203;-77
2020/12/18 02:40:50;;;;;;;26.60;24.40;;;4.70;96.20;;;;;;5016584;28;20662;-77
2020/12/18 02:43:17;;;;;;;25.85;24.05;;;4.80;96.00;;;;;;5013702;28;20227;-77
2020/12/18 02:45:43;;;;;;;24.23;22.52;;;4.80;95.90;;;;;;5013174;28;20190;-77
2020/12/18 02:48:10;;;;;;;26.92;24.75;;;4.80;95.40;;;;;;5013542;28;20264;-77
2020/12/18 02:50:36;;;;;;;40.60;25.92;;;4.80;95.10;;;;;;5013313;28;20194;-77
2020/12/18 02:53:11;;;;;;;1796.60;239.40;;;4.90;95.20;;;;;;5013467;28;20244;-77
2020/12/18 02:55:38;;;;;;;693.00;103.20;;;4.90;96.30;;;;;;5013454;28;20201;-77
2020/12/18 02:58:04;;;;;;;27.25;24.98;;;4.90;96.80;;;;;;5013473;28;20219;-77
2020/12/18 03:05:42;;;;;;;29.20;26.92;;;5.00;96.70;;;;;;5754244;23;20235;-78
2020/12/18 03:08:08;;;;;;;28.50;26.00;;;5.10;96.60;;;;;;5012675;28;20209;-78
2020/12/18 03:10:34;;;;;;;29.90;27.50;;;5.10;96.80;;;;;;5013001;28;20197;-78
2020/12/18 03:13:01;;;;;;;207.50;45.63;;;5.10;96.80;;;;;;5013367;28;20231;-78
2020/12/18 03:15:27;;;;;;;210.82;39.45;;;5.20;97.30;;;;;;5013045;28;20250;-78
2020/12/18 03:17:53;;;;;;;1101.88;157.18;;;5.20;98.20;;;;;;5013277;28;20665;-78
2020/12/18 03:20:20;;;;;;;1999.90;346.63;;;5.30;97.90;;;;;;5013222;28;20196;-78
2020/12/18 03:22:47;;;;;;;1866.90;286.33;;;5.20;97.60;;;;;;5013412;28;20227;-78
2020/12/18 03:25:13;;;;;;;617.75;83.63;;;5.20;97.80;;;;;;5012984;28;20248;-78
2020/12/18 03:27:40;;;;;;;27.63;25.20;;;5.20;98.10;;;;;;5013370;28;20200;-78
2020/12/18 03:30:06;;;;;;;25.52;23.48;;;5.30;99.10;;;;;;5020534;28;20284;-78
2020/12/18 03:32:32;;;;;;;26.08;23.95;;;5.40;98.10;;;;;;5014610;28;20194;-78
2020/12/18 03:34:59;;;;;;;26.45;24.35;;;5.50;97.70;;;;;;5012158;28;20201;-78
2020/12/18 03:37:25;;;;;;;25.63;23.83;;;5.50;96.70;;;;;;5012799;28;20198;-78
2020/12/18 03:39:52;;;;;;;25.73;23.67;;;5.50;96.70;;;;;;5012574;28;20204;-78
2020/12/18 03:42:19;;;;;;;26.17;24.38;;;5.60;96.30;;;;;;5012987;28;20207;-78
2020/12/18 03:44:45;;;;;;;24.55;22.70;;;5.60;96.10;;;;;;5012830;28;20228;-78
2020/12/18 03:47:11;;;;;;;25.65;23.65;;;5.60;95.60;;;;;;5012773;28;20279;-78
2020/12/18 03:49:38;;;;;;;25.30;23.30;;;5.70;95.70;;;;;;5012688;28;20246;-78
2020/12/18 03:52:04;;;;;;;26.17;24.10;;;5.70;96.20;;;;;;5013258;28;20247;-78
2020/12/18 03:54:30;;;;;;;25.92;23.92;;;5.80;95.80;;;;;;5012795;28;20196;-78
2020/12/18 03:56:57;;;;;;;26.15;23.98;;;5.90;94.30;;;;;;5012671;28;20230;-78
2020/12/18 03:59:24;;;;;;;27.52;25.33;;;5.80;93.50;;;;;;5012392;28;20612;-78
2020/12/18 04:01:50;;;;;;;26.23;24.50;;;5.80;93.90;;;;;;5012644;28;20537;-78
2020/12/18 04:04:17;;;;;;;27.17;25.17;;;5.80;93.90;;;;;;5012664;28;20567;-78
2020/12/18 04:06:43;;;;;;;27.45;25.35;;;5.90;93.70;;;;;;5012488;28;20240;-78
2020/12/18 04:09:10;;;;;;;27.55;25.52;;;5.90;93.40;;;;;;5012546;28;20259;-78
2020/12/18 04:11:36;;;;;;;25.92;24.02;;;5.90;93.00;;;;;;5012557;28;20314;-77
2020/12/18 04:14:04;;;;;;;26.88;24.77;;;5.80;93.40;;;;;;5012891;28;20189;-77
2020/12/18 04:16:30;;;;;;;25.27;23.27;;;5.80;93.70;;;;;;5011266;28;20218;-78
2020/12/18 04:18:56;;;;;;;25.70;23.90;;;5.80;93.70;;;;;;5013122;28;20277;-78
2020/12/18 04:21:23;;;;;;;26.60;24.42;;;5.80;93.60;;;;;;5012703;28;20198;-78
2020/12/18 04:23:49;;;;;;;26.33;24.50;;;5.80;93.60;;;;;;5012162;28;20605;-78
2020/12/18 04:26:15;;;;;;;25.65;23.65;;;5.70;94.20;;;;;;5012263;28;20223;-78
2020/12/18 04:28:42;;;;;;;24.98;23.02;;;5.70;94.50;;;;;;5012533;28;20299;-78
2020/12/18 04:31:09;;;;;;;27.30;25.38;;;5.70;94.90;;;;;;5012644;28;20228;-78
2020/12/18 04:33:36;;;;;;;27.55;25.15;;;5.70;94.70;;;;;;5012046;28;20219;-78
2020/12/18 04:36:03;;;;;;;27.73;25.75;;;5.80;94.70;;;;;;5012350;28;20312;-78
2020/12/18 04:38:29;;;;;;;27.70;25.67;;;5.90;94.40;;;;;;5012249;28;20561;-78
2020/12/18 04:40:55;;;;;;;28.20;26.08;;;6.00;93.80;;;;;;5012365;28;20207;-78
2020/12/18 04:43:22;;;;;;;25.88;23.98;;;5.90;93.00;;;;;;5012051;28;20240;-78
2020/12/18 04:45:50;;;;;;;28.20;26.10;;;5.90;93.10;;;;;;5012287;28;20228;-78
2020/12/18 04:48:19;;;;;;;28.25;26.10;;;5.80;93.50;;;;;;5023824;28;20271;-78
2020/12/18 04:50:48;;;;;;;28.63;26.05;;;5.80;93.90;;;;;;5025423;28;20204;-78
2020/12/18 04:53:14;;;;;;;27.23;24.63;;;5.80;94.30;;;;;;5015959;28;20266;-78
2020/12/18 04:55:46;;;;;;;27.45;25.35;;;5.80;95.30;;;;;;5015363;28;20222;-78
2020/12/18 04:58:16;;;;;;;197.85;43.20;;;5.90;94.80;;;;;;5015903;28;20198;-78
2020/12/18 05:00:43;;;;;;;27.77;25.58;;;5.80;96.20;;;;;;5015723;28;20201;-78
2020/12/18 05:03:09;;;;;;;25.98;23.98;;;5.90;95.40;;;;;;5017864;28;20217;-78
2020/12/18 05:05:37;;;;;;;28.48;26.02;;;5.80;96.10;;;;;;5022506;28;20602;-78
2020/12/18 05:08:03;;;;;;;29.05;26.77;;;5.70;96.10;;;;;;5021004;28;20190;-78
2020/12/18 05:10:29;;;;;;;27.52;25.42;;;5.70;96.10;;;;;;5015777;28;20198;-78
2020/12/18 05:12:56;;;;;;;27.90;25.73;;;5.70;96.00;;;;;;5015400;28;20621;-78
2020/12/18 05:15:22;;;;;;;28.83;26.75;;;5.70;95.90;;;;;;5015284;28;20278;-78
2020/12/18 05:17:51;;;;;;;26.63;24.73;;;5.70;96.00;;;;;;5015404;28;20207;-78
2020/12/18 05:20:18;;;;;;;27.48;25.27;;;5.70;96.00;;;;;;5015254;28;20201;-78
2020/12/18 05:22:45;;;;;;;320.17;53.65;;;5.70;96.40;;;;;;5015030;28;20678;-77
2020/12/18 05:25:17;;;;;;;121.15;35.22;;;5.70;96.70;;;;;;5014780;28;20242;-78
2020/12/18 05:27:43;;;;;;;174.57;43.90;;;5.80;96.90;;;;;;5015167;28;20205;-78
2020/12/18 05:30:10;;;;;;;27.75;25.40;;;5.90;98.60;;;;;;5014994;28;20242;-78
2020/12/18 05:32:37;;;;;;;26.52;24.40;;;6.00;98.40;;;;;;5014983;28;20244;-78
2020/12/18 05:35:05;;;;;;;27.80;25.65;;;6.00;97.30;;;;;;5014555;28;20647;-77
2020/12/18 05:37:36;;;;;;;27.80;25.70;;;6.00;97.40;;;;;;5014842;28;20267;-77
2020/12/18 05:40:04;;;;;;;26.08;24.05;;;6.00;97.30;;;;;;5014614;28;20209;-77
2020/12/18 05:42:39;;;;;;;27.02;24.75;;;6.00;97.00;;;;;;5015020;28;20290;-77
2020/12/18 05:45:12;;;;;;;26.55;24.65;;;6.10;96.20;;;;;;5014489;28;20292;-78
2020/12/18 05:47:54;;;;;;;90.70;30.73;;;6.10;95.50;;;;;;5014580;28;20224;-77
2020/12/18 05:50:20;;;;;;;27.02;24.70;;;6.10;96.30;;;;;;5014545;28;20190;-77
2020/12/18 05:52:57;;;;;;;25.95;24.23;;;6.10;96.10;;;;;;5014711;28;20627;-77
2020/12/18 05:55:25;;;;;;;27.58;25.27;;;6.20;96.10;;;;;;5014342;28;20701;-77
2020/12/18 05:57:53;;;;;;;27.40;24.55;;;6.10;96.00;;;;;;5014148;28;20209;-77
2020/12/18 06:00:21;;;;;;;26.92;24.52;;;6.10;96.10;;;;;;5014439;28;20200;-77
2020/12/18 06:02:56;;;;;;;25.83;23.90;;;6.10;96.10;;;;;;5014098;28;20659;-78
2020/12/18 06:05:24;;;;;;;29.08;26.48;;;6.10;95.80;;;;;;5014033;28;20308;-78
2020/12/18 06:07:51;;;;;;;26.75;24.65;;;6.00;95.90;;;;;;5014252;28;20607;-78
2020/12/18 06:10:21;;;;;;;25.80;23.48;;;6.00;95.90;;;;;;5014327;28;20256;-78
2020/12/18 06:12:49;;;;;;;27.13;24.80;;;6.10;96.30;;;;;;5014430;28;20205;-77
2020/12/18 06:15:17;;;;;;;27.92;25.83;;;6.20;95.50;;;;;;5014011;28;20301;-77
2020/12/18 06:17:45;;;;;;;27.92;25.45;;;6.10;95.60;;;;;;5014755;28;20194;-78
2020/12/18 06:20:14;;;;;;;28.20;26.00;;;6.10;95.60;;;;;;5015210;28;20324;-78
2020/12/18 06:22:57;;;;;;;28.70;26.25;;;6.20;96.20;;;;;;5016429;28;20595;-78
2020/12/18 06:25:24;;;;;;;30.10;27.50;;;6.20;95.40;;;;;;5013689;28;20354;-78
2020/12/18 06:27:56;;;;;;;28.85;26.55;;;6.10;95.30;;;;;;5014005;28;20544;-77
2020/12/18 06:30:22;;;;;;;27.95;25.55;;;6.00;95.40;;;;;;5013884;28;20597;-78
2020/12/18 06:32:48;;;;;;;28.88;26.45;;;6.00;95.40;;;;;;5013606;28;20284;-78
2020/12/18 06:35:30;;;;;;;29.25;26.90;;;6.00;95.40;;;;;;5013429;28;20694;-78
2020/12/18 06:37:57;;;;;;;46.33;27.67;;;6.00;95.60;;;;;;5013900;28;20259;-78
2020/12/18 06:40:28;;;;;;;27.10;24.92;;;6.00;96.70;;;;;;5013789;28;20198;-78
2020/12/18 06:42:56;;;;;;;27.38;24.88;;;6.00;96.60;;;;;;5014712;28;20198;-78
2020/12/18 06:45:23;;;;;;;27.85;25.60;;;6.10;96.20;;;;;;5025842;28;20222;-78
2020/12/18 06:47:50;;;;;;;27.15;25.05;;;6.20;96.00;;;;;;5014739;28;20655;-78
2020/12/18 06:50:17;;;;;;;26.02;23.83;;;6.30;95.30;;;;;;5013297;28;20201;-78
2020/12/18 06:52:53;;;;;;;26.90;24.90;;;6.20;95.00;;;;;;5013604;28;20288;-77
2020/12/18 06:55:37;;;;;;;26.13;23.77;;;6.20;94.90;;;;;;5014101;28;20710;-78
2020/12/18 06:58:18;;;;;;;27.13;24.73;;;6.10;95.10;;;;;;5014038;28;20226;-77
2020/12/18 07:00:50;;;;;;;25.90;23.90;;;6.20;95.10;;;;;;5013760;28;20236;-78
2020/12/18 07:03:36;;;;;;;27.58;25.38;;;6.30;94.30;;;;;;5013873;28;20582;-78
2020/12/18 07:06:04;;;;;;;29.60;26.92;;;6.30;94.80;;;;;;5013236;28;20229;-77
2020/12/18 07:08:32;;;;;;;25.90;23.65;;;6.20;95.10;;;;;;5013498;28;20198;-77
2020/12/18 07:11:02;;;;;;;28.42;26.00;;;6.20;94.70;;;;;;5012401;28;20189;-78
2020/12/18 07:13:32;;;;;;;25.77;23.83;;;6.30;94.70;;;;;;5013979;28;20221;-77
2020/12/18 07:16:03;;;;;;;26.92;24.42;;;6.30;94.90;;;;;;5012761;28;20582;-77
2020/12/18 07:18:31;;;;;;;26.52;24.48;;;6.30;94.80;;;;;;5013432;28;20198;-77
2020/12/18 07:20:59;;;;;;;44.53;26.40;;;6.30;94.50;;;;;;5013147;28;20205;-77
2020/12/18 07:23:27;;;;;;;26.42;24.15;;;6.30;95.70;;;;;;5013171;28;20228;-78
2020/12/18 07:25:54;;;;;;;27.15;25.15;;;6.30;95.60;;;;;;5012900;28;20260;-78
2020/12/18 07:28:22;;;;;;;26.15;23.23;;;6.40;95.40;;;;;;5013358;28;20198;-78
2020/12/18 07:30:50;;;;;;;686.60;89.90;;;6.40;95.40;;;;;;5012693;28;20687;-78
2020/12/18 07:33:18;;;;;;;1999.90;923.15;;;6.50;96.60;;;;;;5013123;28;20232;-78
2020/12/18 07:35:46;;;;;;;25.60;23.27;;;6.50;99.20;;;;;;5013345;28;20222;-78
2020/12/18 07:38:14;;;;;;;26.42;24.40;;;6.60;98.90;;;;;;5013280;28;20196;-78
2020/12/18 07:40:41;;;;;;;27.33;25.10;;;6.60;98.10;;;;;;5012989;28;20234;-78
2020/12/18 07:43:09;;;;;;;28.67;25.55;;;6.70;97.20;;;;;;5012934;28;20190;-78
2020/12/18 07:45:43;;;;;;;26.25;24.35;;;6.70;96.10;;;;;;5012631;28;20272;-78
2020/12/18 07:48:15;;;;;;;27.75;24.73;;;6.60;96.00;;;;;;5014014;28;20201;-78
2020/12/18 07:51:09;;;;;;;1999.90;340.58;;;6.60;98.20;;;;;;5013290;28;20209;-78
2020/12/18 07:53:37;;;;;;;29.15;24.45;;;6.60;99.90;;;;;;4966725;28;20190;-78
2020/12/18 07:56:06;;;;;;;29.58;25.13;;;6.70;99.10;;;;;;5013250;28;20220;-78
2020/12/18 07:58:33;;;;;;;27.83;25.50;;;6.70;98.20;;;;;;5012898;28;20198;-78
2020/12/18 08:01:07;;;;;;;26.35;24.45;;;6.70;97.60;;;;;;5012617;28;20248;-78
2020/12/18 08:03:35;;;;;;;25.13;23.23;;;6.70;97.50;;;;;;5012557;28;20220;-78
2020/12/18 08:06:04;;;;;;;782.97;100.50;;;6.70;97.20;;;;;;5012261;28;20213;-78
2020/12/18 08:08:32;;;;;;;26.00;23.90;;;6.80;98.60;;;;;;5012959;28;20208;-78
2020/12/18 08:11:02;;;;;;;24.48;22.60;;;6.90;98.10;;;;;;5013105;28;20198;-78
2020/12/18 08:13:30;;;;;;;25.27;23.08;;;7.10;97.50;;;;;;5019813;28;20199;-78
2020/12/18 08:16:10;;;;;;;26.02;23.70;;;7.20;96.60;;;;;;5019070;28;20239;-78
2020/12/18 08:18:37;;;;;;;25.45;23.65;;;7.30;95.90;;;;;;5012612;28;20196;-78
2020/12/18 08:21:04;;;;;;;25.08;23.02;;;7.40;95.20;;;;;;5012935;28;20198;-78
2020/12/18 08:23:33;;;;;;;26.05;24.05;;;7.50;94.70;;;;;;5016512;28;20221;-78
2020/12/18 08:26:01;;;;;;;25.52;23.63;;;7.50;94.00;;;;;;5016027;28;20216;-78
2020/12/18 08:28:30;;;;;;;27.63;25.42;;;7.60;94.10;;;;;;5016374;28;20220;-78
2020/12/18 08:31:05;;;;;;;26.05;23.85;;;7.60;93.80;;;;;;5016105;28;20204;-78
2020/12/18 08:33:35;;;;;;;24.92;22.70;;;7.70;93.50;;;;;;5015780;28;20667;-78
2020/12/18 08:36:03;;;;;;;27.88;25.73;;;7.80;93.10;;;;;;5016059;28;20228;-78
2020/12/18 08:38:30;;;;;;;27.95;25.65;;;7.90;92.10;;;;;;5016040;28;20201;-78
2020/12/18 08:40:57;;;;;;;30.48;27.50;;;8.00;91.50;;;;;;5016819;28;20234;-78
2020/12/18 08:43:23;;;;;;;27.85;26.05;;;8.00;91.00;;;;;;5018490;28;20228;-78
2020/12/18 08:45:50;;;;;;;26.52;24.52;;;8.10;90.40;;;;;;5015573;28;20238;-78
2020/12/18 08:48:20;;;;;;;28.05;25.88;;;8.10;91.70;;;;;;5016579;28;20198;-78
2020/12/18 08:50:47;;;;;;;437.25;60.20;;;8.10;91.00;;;;;;5016402;28;20201;-78
2020/12/18 08:53:16;;;;;;;28.02;25.50;;;8.20;92.30;;;;;;5017004;28;20681;-78
2020/12/18 08:55:42;;;;;;;29.40;26.88;;;8.20;91.40;;;;;;5015646;28;20218;-78
2020/12/18 08:58:09;;;;;;;26.90;24.83;;;8.30;91.10;;;;;;5016276;28;20205;-78
2020/12/18 09:00:36;;;;;;;27.77;25.58;;;8.30;90.90;;;;;;5016415;28;20201;-78
2020/12/18 09:03:03;;;;;;;28.10;25.70;;;8.40;90.90;;;;;;5015969;28;20289;-78
2020/12/18 09:05:30;;;;;;;25.23;23.33;;;8.50;90.40;;;;;;5015538;28;20589;-78
2020/12/18 09:07:59;;;;;;;26.58;24.15;;;8.60;90.30;;;;;;5016094;28;20647;-78
2020/12/18 09:10:40;;;;;;;27.17;24.88;;;8.70;89.30;;;;;;5016379;28;20208;-78
2020/12/18 09:13:15;;;;;;;29.63;26.52;;;8.80;89.00;;;;;;5016234;28;20216;-77
2020/12/18 09:15:42;;;;;;;29.15;26.70;;;8.80;88.80;;;;;;5015560;28;20221;-78
2020/12/18 09:18:10;;;;;;;27.55;25.35;;;8.80;88.80;;;;;;5015844;28;20198;-78
2020/12/18 09:20:39;;;;;;;27.50;25.20;;;8.90;88.60;;;;;;5015634;28;20202;-78
2020/12/18 09:23:06;;;;;;;30.63;26.87;;;9.00;88.30;;;;;;5015505;28;20446;-78
2020/12/18 09:25:37;;;;;;;30.02;27.27;;;9.00;88.10;;;;;;5015915;28;21008;-78
2020/12/18 09:28:10;;;;;;;28.40;25.93;;;9.00;88.70;;;;;;5015596;28;20210;-78
2020/12/18 09:30:36;;;;;;;28.13;25.48;;;8.90;88.60;;;;;;5015429;28;20461;-78
2020/12/18 09:33:13;;;;;;;30.63;27.58;;;8.90;87.80;;;;;;5014293;28;20193;-78
2020/12/18 09:35:41;;;;;;;28.15;26.00;;;8.80;87.80;;;;;;5015244;28;20575;-78
2020/12/18 09:38:08;;;;;;;29.03;26.63;;;8.70;88.20;;;;;;5015049;28;20205;-78
2020/12/18 09:40:35;;;;;;;29.50;26.70;;;8.60;88.70;;;;;;5015427;28;20457;-78
2020/12/18 09:43:01;;;;;;;28.23;26.00;;;8.60;88.70;;;;;;5015085;28;20463;-78
2020/12/18 09:45:28;;;;;;;29.73;26.58;;;8.70;88.70;;;;;;5014786;28;20966;-78
2020/12/18 09:47:55;;;;;;;27.15;24.85;;;8.70;89.10;;;;;;5015337;28;20198;-78
2020/12/18 09:50:21;;;;;;;28.30;25.92;;;8.80;88.70;;;;;;5014975;28;20282;-78
2020/12/18 09:52:47;;;;;;;27.92;25.75;;;8.90;88.10;;;;;;5015449;28;20237;-78
2020/12/18 09:55:14;;;;;;;28.63;26.30;;;8.90;87.40;;;;;;5015070;28;20202;-78
2020/12/18 09:57:41;;;;;;;28.25;25.95;;;8.90;87.10;;;;;;5014912;28;20576;-78
2020/12/18 10:00:08;;;;;;;27.65;25.60;;;8.90;86.90;;;;;;5015244;28;20200;-78
2020/12/18 10:02:35;;;;;;;27.42;25.33;;;8.90;87.10;;;;;;5017981;28;20198;-78
2020/12/18 10:05:02;;;;;;;28.42;26.38;;;9.00;87.00;;;;;;5031623;28;20229;-77
2020/12/18 10:07:28;;;;;;;27.70;25.77;;;9.00;86.90;;;;;;5031771;28;20205;-78
2020/12/18 10:09:55;;;;;;;27.15;24.92;;;9.10;87.00;;;;;;5016326;28;20277;-77
2020/12/18 10:12:21;;;;;;;27.75;25.55;;;9.10;86.80;;;;;;5015217;28;20276;-78
2020/12/18 10:14:47;;;;;;;28.15;26.00;;;9.20;86.80;;;;;;5014822;28;20197;-78
2020/12/18 10:17:14;;;;;;;30.20;27.80;;;9.20;86.50;;;;;;5014126;28;20293;-78
2020/12/18 10:19:41;;;;;;;31.37;28.17;;;9.30;86.10;;;;;;5014178;28;20453;-78
2020/12/18 10:22:07;;;;;;;28.30;26.00;;;9.30;86.10;;;;;;5014662;28;20475;-78
2020/12/18 10:24:34;;;;;;;28.30;26.02;;;9.30;85.90;;;;;;5014542;28;20798;-78
2020/12/18 10:27:00;;;;;;;42.10;28.60;;;9.30;86.30;;;;;;5014336;28;20222;-78
2020/12/18 10:29:27;;;;;;;30.23;26.97;;;9.40;87.10;;;;;;5014405;28;20463;-78
2020/12/18 10:31:53;;;;;;;29.87;27.10;;;9.50;86.50;;;;;;5014610;28;20460;-78
2020/12/18 10:34:20;;;;;;;29.20;26.30;;;9.60;86.30;;;;;;5014097;28;20461;-78
2020/12/18 10:36:50;;;;;;;31.07;25.90;;;9.70;86.00;;;;;;5019672;28;20472;-78
2020/12/18 10:39:17;;;;;;;36.27;28.27;;;9.70;85.80;;;;;;5025636;28;20460;-78
2020/12/18 10:41:43;;;;;;;34.50;28.97;;;9.80;85.70;;;;;;5014836;28;20461;-78
2020/12/18 10:44:10;;;;;;;30.50;27.50;;;9.80;85.50;;;;;;5014450;28;20472;-78
2020/12/18 10:46:37;;;;;;;29.63;27.10;;;9.90;85.40;;;;;;5013881;28;20905;-80
2020/12/18 10:49:04;;;;;;;30.30;27.67;;;9.90;85.50;;;;;;5014195;28;20479;-78
2020/12/18 10:51:30;;;;;;;29.73;27.10;;;9.90;85.30;;;;;;5014363;28;20535;-78
2020/12/18 10:53:57;;;;;;;28.40;26.30;;;9.90;84.90;;;;;;5014167;28;20536;-78
2020/12/18 10:56:24;;;;;;;29.50;26.90;;;9.90;85.00;;;;;;5012578;28;20479;-78
2020/12/18 10:58:50;;;;;;;29.93;27.40;;;9.90;85.00;;;;;;5013361;28;20511;-78
2020/12/18 11:01:17;;;;;;;30.30;27.50;;;10.10;84.90;;;;;;5013064;28;20463;-77
2020/12/18 11:03:44;;;;;;;29.33;26.87;;;10.10;84.70;;;;;;5013102;28;20515;-77
2020/12/18 11:06:10;;;;;;;32.13;29.57;;;10.20;84.40;;;;;;5012997;28;20539;-78
2020/12/18 11:08:53;;;;;;;29.43;27.43;;;10.30;84.00;;;;;;5013026;28;20527;-78
2020/12/18 11:11:20;;;;;;;30.90;28.07;;;10.30;83.90;;;;;;5013316;28;20457;-77
2020/12/18 11:13:46;;;;;;;29.40;27.13;;;10.40;83.70;;;;;;5013190;28;20459;-77
2020/12/18 11:16:14;;;;;;;30.13;27.73;;;10.40;83.70;;;;;;5013153;28;20550;-78
2020/12/18 11:18:41;;;;;;;28.93;26.90;;;10.40;83.70;;;;;;5012935;28;20449;-78
2020/12/18 11:21:08;;;;;;;31.43;28.70;;;10.50;83.40;;;;;;5015510;28;20453;-77
2020/12/18 11:23:35;;;;;;;31.20;28.17;;;10.60;82.80;;;;;;5016164;28;20522;-78
2020/12/18 11:26:02;;;;;;;31.20;29.07;;;10.60;82.90;;;;;;5014138;28;20477;-78
2020/12/18 11:28:29;;;;;;;29.30;27.17;;;10.70;82.60;;;;;;5013555;28;20459;-78
2020/12/18 11:30:55;;;;;;;31.23;28.50;;;10.70;82.70;;;;;;5014901;28;20463;-78
2020/12/18 11:33:22;;;;;;;31.60;29.30;;;10.80;82.70;;;;;;5013712;28;20460;-78
2020/12/18 11:35:48;;;;;;;32.80;30.10;;;10.80;83.00;;;;;;5013593;28;20566;-78
2020/12/18 11:38:15;;;;;;;33.03;30.13;;;10.90;82.50;;;;;;5013027;28;20936;-78
2020/12/18 11:40:41;;;;;;;31.77;28.93;;;11.00;82.80;;;;;;5013228;28;20910;-78
2020/12/18 11:43:07;;;;;;;32.00;29.40;;;11.00;82.40;;;;;;5012996;28;20546;-78
2020/12/18 11:45:34;;;;;;;31.87;29.23;;;11.00;82.60;;;;;;5013161;28;20487;-78
2020/12/18 11:48:01;;;;;;;32.67;30.07;;;11.10;82.10;;;;;;5013055;28;20453;-78
2020/12/18 11:50:28;;;;;;;31.63;29.50;;;11.00;81.50;;;;;;5013392;28;20467;-77
2020/12/18 11:52:56;;;;;;;33.60;30.80;;;11.10;81.50;;;;;;5012975;28;20453;-78
2020/12/18 11:55:22;;;;;;;33.10;29.90;;;11.20;81.30;;;;;;5012551;28;20469;-78
2020/12/18 11:57:49;;;;;;;29.40;27.50;;;11.30;81.90;;;;;;5015469;28;20456;-78
2020/12/18 12:00:19;;;;;;;29.07;27.07;;;11.40;81.20;;;;;;5016764;28;20457;-77
2020/12/18 12:02:48;;;;;;;29.07;27.17;;;11.40;81.10;;;;;;5016594;28;20515;-77
2020/12/18 12:05:15;;;;;;;28.17;26.27;;;11.50;80.40;;;;;;5016147;28;20483;-77
2020/12/18 12:07:41;;;;;;;37.90;34.87;;;11.60;80.20;;;;;;5016622;28;20464;-77
2020/12/18 12:10:08;;;;;;;34.60;32.07;;;11.70;79.80;;;;;;5016329;28;20445;-77
2020/12/18 12:12:34;;;;;;;28.47;26.60;;;11.80;79.90;;;;;;5016900;28;20457;-77
2020/12/18 12:15:00;;;;;;;28.67;26.77;;;11.80;80.10;;;;;;5016105;28;20445;-77
2020/12/18 12:17:27;;;;;;;28.50;26.40;;;11.90;79.60;;;;;;5016235;28;20453;-77
2020/12/18 12:19:54;;;;;;;26.90;25.07;;;11.90;80.30;;;;;;5016487;28;20510;-77
2020/12/18 12:22:20;;;;;;;29.07;26.83;;;11.90;79.30;;;;;;5016265;28;20456;-77
2020/12/18 12:24:47;;;;;;;26.93;25.03;;;12.00;78.90;;;;;;5016275;28;20546;-77
2020/12/18 12:27:13;;;;;;;29.00;26.60;;;12.00;78.80;;;;;;5016190;28;20970;-78
2020/12/18 12:29:40;;;;;;;30.10;27.30;;;12.00;78.40;;;;;;5016060;28;20453;-78
2020/12/18 12:32:06;;;;;;;29.43;26.27;;;12.10;78.40;;;;;;5016031;28;20460;-77
2020/12/18 12:34:33;;;;;;;29.53;27.23;;;12.10;78.30;;;;;;5016486;28;20465;-77
2020/12/18 12:37:01;;;;;;;29.93;27.27;;;12.10;78.20;;;;;;5016130;28;20553;-77
2020/12/18 12:39:28;;;;;;;28.83;26.70;;;12.10;78.10;;;;;;5015977;28;20459;-77
2020/12/18 12:41:54;;;;;;;27.63;25.50;;;12.10;78.00;;;;;;5016076;28;20455;-77